createdAt,value
2018-02-22T00:00:49.331Z,0.00
2018-02-22T00:01:49.287Z,0.00
2018-02-22T00:02:49.245Z,0.00
2018-02-22T00:03:49.207Z,0.00
2018-02-22T00:04:49.161Z,0.00
2018-02-22T00:05:49.141Z,0.00
2018-02-22T00:06:49.092Z,0.00
2018-02-22T00:07:49.031Z,0.00
2018-02-22T00:08:48.989Z,0.00
2018-02-22T00:09:48.946Z,0.00
2018-02-22T00:10:48.915Z,0.00
2018-02-22T00:11:48.864Z,0.00
2018-02-22T00:12:48.819Z,0.00
2018-02-22T00:13:48.777Z,0.00
2018-02-22T00:14:48.751Z,0.00
2018-02-22T00:15:48.694Z,0.00
2018-02-22T00:16:48.663Z,0.00
2018-02-22T00:17:48.616Z,0.00
2018-02-22T00:18:48.579Z,0.00
2018-02-22T00:19:48.524Z,0.00
2018-02-22T00:20:48.488Z,0.00
2018-02-22T00:21:48.442Z,0.00
2018-02-22T00:22:48.400Z,0.00
2018-02-22T00:23:48.397Z,0.00
2018-02-22T00:24:48.317Z,0.00
2018-02-22T00:25:48.288Z,0.00
2018-02-22T00:26:48.229Z,0.00
2018-02-22T00:27:48.191Z,0.00
2018-02-22T00:28:48.156Z,0.00
2018-02-22T00:29:48.132Z,0.00
2018-02-22T00:30:48.062Z,0.00
2018-02-22T00:31:48.031Z,0.00
2018-02-22T00:32:47.992Z,0.00
2018-02-22T00:33:47.946Z,0.00
2018-02-22T00:34:47.923Z,0.00
2018-02-22T00:35:47.854Z,0.00
2018-02-22T00:36:47.817Z,0.00
2018-02-22T00:37:47.788Z,0.00
2018-02-22T00:38:47.726Z,0.00
2018-02-22T00:39:47.691Z,0.00
2018-02-22T00:40:47.639Z,0.00
2018-02-22T00:41:47.598Z,0.00
2018-02-22T00:42:47.575Z,0.00
2018-02-22T00:43:47.512Z,0.00
2018-02-22T00:44:47.477Z,0.00
2018-02-22T00:45:47.445Z,0.00
2018-02-22T00:46:47.405Z,0.00
2018-02-22T00:47:47.345Z,0.00
2018-02-22T00:48:47.300Z,0.00
2018-02-22T00:49:47.257Z,0.00
2018-02-22T00:50:47.247Z,0.00
2018-02-22T00:51:47.173Z,0.00
2018-02-22T00:52:47.132Z,0.00
2018-02-22T00:53:47.095Z,0.00
2018-02-22T00:54:47.058Z,0.00
2018-02-22T00:55:47.003Z,0.00
2018-02-22T00:56:46.963Z,0.00
2018-02-22T00:57:46.935Z,0.00
2018-02-22T00:58:46.886Z,0.00
2018-02-22T00:59:46.833Z,0.00
2018-02-22T01:00:46.808Z,0.00
2018-02-22T01:01:46.757Z,0.00
2018-02-22T01:02:46.709Z,0.00
2018-02-22T01:03:46.690Z,0.00
2018-02-22T01:04:46.628Z,0.00
2018-02-22T01:05:46.616Z,0.00
2018-02-22T01:06:46.541Z,0.00
2018-02-22T01:07:46.517Z,0.00
2018-02-22T01:08:46.453Z,0.00
2018-02-22T01:09:46.448Z,0.00
2018-02-22T01:10:46.385Z,0.00
2018-02-22T01:11:46.327Z,0.00
2018-02-22T01:12:46.283Z,0.00
2018-02-22T01:13:46.242Z,0.00
2018-02-22T01:14:46.214Z,0.00
2018-02-22T01:15:46.162Z,0.00
2018-02-22T01:16:46.149Z,0.00
2018-02-22T01:17:46.112Z,0.00
2018-02-22T01:18:46.048Z,0.00
2018-02-22T01:19:45.990Z,0.00
2018-02-22T01:20:46.029Z,0.00
2018-02-22T01:21:45.905Z,0.00
2018-02-22T01:22:45.877Z,0.00
2018-02-22T01:23:45.819Z,0.00
2018-02-22T01:24:45.793Z,0.00
2018-02-22T01:25:45.740Z,0.00
2018-02-22T01:26:45.696Z,0.00
2018-02-22T01:27:45.678Z,0.00
2018-02-22T01:28:45.608Z,0.00
2018-02-22T01:29:45.598Z,0.00
2018-02-22T01:30:45.569Z,0.00
2018-02-22T01:31:45.485Z,0.00
2018-02-22T01:32:45.437Z,0.00
2018-02-22T01:33:45.446Z,0.00
2018-02-22T01:34:45.358Z,0.00
2018-02-22T01:35:45.338Z,0.00
2018-02-22T01:36:45.266Z,0.00
2018-02-22T01:37:45.257Z,0.00
2018-02-22T01:38:45.182Z,0.00
2018-02-22T01:39:45.146Z,0.00
2018-02-22T01:40:45.110Z,0.00
2018-02-22T01:41:45.064Z,0.00
2018-02-22T01:42:45.013Z,0.00
2018-02-22T01:43:44.985Z,0.00
2018-02-22T01:44:44.936Z,0.00
2018-02-22T01:45:44.884Z,0.00
2018-02-22T01:46:44.866Z,0.00
2018-02-22T01:47:44.801Z,0.00
2018-02-22T01:48:44.769Z,0.00
2018-02-22T01:49:44.717Z,0.00
2018-02-22T01:50:44.697Z,0.00
2018-02-22T01:51:44.636Z,0.00
2018-02-22T01:52:44.628Z,0.00
2018-02-22T01:53:44.549Z,0.00
2018-02-22T01:54:44.502Z,0.00
2018-02-22T01:55:44.481Z,0.00
2018-02-22T01:56:44.447Z,0.00
2018-02-22T01:57:44.380Z,0.00
2018-02-22T01:58:44.337Z,0.00
2018-02-22T01:59:44.339Z,0.00
2018-02-22T02:00:44.257Z,0.00
2018-02-22T02:01:44.207Z,0.00
2018-02-22T02:02:44.169Z,0.00
2018-02-22T02:03:44.122Z,0.00
2018-02-22T02:04:44.098Z,0.00
2018-02-22T02:05:44.047Z,0.00
2018-02-22T02:06:44.025Z,0.00
2018-02-22T02:07:43.960Z,0.00
2018-02-22T02:08:43.951Z,0.00
2018-02-22T02:09:43.869Z,0.00
2018-02-22T02:10:43.828Z,0.00
2018-02-22T02:11:43.796Z,0.00
2018-02-22T02:12:43.747Z,0.00
2018-02-22T02:13:43.711Z,0.00
2018-02-22T02:14:43.672Z,0.00
2018-02-22T02:15:43.616Z,0.00
2018-02-22T02:16:43.597Z,0.00
2018-02-22T02:17:43.528Z,0.00
2018-02-22T02:18:43.510Z,0.00
2018-02-22T02:19:43.443Z,0.00
2018-02-22T02:20:43.452Z,0.00
2018-02-22T02:21:43.354Z,0.00
2018-02-22T02:22:43.318Z,0.00
2018-02-22T02:23:43.270Z,0.00
2018-02-22T02:24:43.233Z,0.00
2018-02-22T02:25:43.226Z,0.00
2018-02-22T02:26:43.148Z,0.00
2018-02-22T02:27:43.101Z,0.00
2018-02-22T02:28:43.061Z,0.00
2018-02-22T02:29:43.045Z,0.00
2018-02-22T02:30:42.974Z,0.00
2018-02-22T02:31:42.932Z,0.00
2018-02-22T02:32:42.890Z,0.00
2018-02-22T02:33:42.852Z,0.00
2018-02-22T02:34:42.826Z,0.00
2018-02-22T02:35:42.762Z,0.00
2018-02-22T02:36:42.733Z,0.00
2018-02-22T02:37:42.693Z,0.00
2018-02-22T02:38:42.642Z,0.00
2018-02-22T02:39:42.593Z,0.00
2018-02-22T02:40:42.582Z,0.00
2018-02-22T02:41:42.509Z,0.00
2018-02-22T02:42:42.476Z,0.00
2018-02-22T02:43:42.496Z,0.00
2018-02-22T02:44:42.400Z,0.00
2018-02-22T02:45:42.349Z,0.00
2018-02-22T02:46:42.304Z,0.00
2018-02-22T02:47:42.257Z,0.00
2018-02-22T02:48:42.211Z,0.00
2018-02-22T02:49:42.165Z,0.00
2018-02-22T02:50:42.127Z,0.00
2018-02-22T02:51:42.104Z,0.00
2018-02-22T02:52:42.042Z,0.00
2018-02-22T02:53:42.002Z,0.00
2018-02-22T02:54:41.954Z,0.00
2018-02-22T02:55:41.908Z,0.00
2018-02-22T02:56:41.871Z,0.00
2018-02-22T02:57:41.862Z,0.00
2018-02-22T02:58:41.782Z,0.00
2018-02-22T02:59:41.748Z,0.00
2018-02-22T03:00:41.699Z,0.00
2018-02-22T03:01:41.653Z,0.00
2018-02-22T03:02:41.613Z,0.00
2018-02-22T03:03:41.588Z,0.00
2018-02-22T03:04:41.524Z,0.00
2018-02-22T03:05:41.499Z,0.00
2018-02-22T03:06:41.474Z,0.00
2018-02-22T03:07:41.407Z,0.00
2018-02-22T03:08:41.359Z,0.00
2018-02-22T03:09:41.311Z,0.00
2018-02-22T03:10:41.277Z,0.00
2018-02-22T03:11:41.234Z,0.00
2018-02-22T03:12:41.202Z,0.00
2018-02-22T03:13:41.162Z,0.00
2018-02-22T03:14:41.098Z,0.00
2018-02-22T03:15:41.847Z,0.00
2018-02-22T03:16:41.014Z,0.00
2018-02-22T03:17:40.969Z,0.00
2018-02-22T03:18:40.943Z,0.00
2018-02-22T03:19:40.927Z,0.00
2018-02-22T03:20:40.841Z,0.00
2018-02-22T03:21:40.827Z,0.00
2018-02-22T03:22:40.801Z,0.00
2018-02-22T03:23:40.725Z,0.00
2018-02-22T03:24:40.673Z,0.00
2018-02-22T03:25:40.632Z,0.00
2018-02-22T03:26:40.596Z,0.00
2018-02-22T03:27:40.554Z,0.00
2018-02-22T03:28:40.536Z,0.00
2018-02-22T03:29:40.486Z,0.00
2018-02-22T03:30:40.421Z,0.00
2018-02-22T03:31:40.375Z,0.00
2018-02-22T03:32:40.337Z,0.00
2018-02-22T03:33:40.287Z,0.00
2018-02-22T03:34:40.249Z,0.00
2018-02-22T03:35:40.208Z,0.00
2018-02-22T03:36:40.164Z,0.00
2018-02-22T03:37:40.118Z,0.00
2018-02-22T03:38:40.083Z,0.00
2018-02-22T03:39:40.064Z,0.00
2018-02-22T03:40:39.992Z,0.00
2018-02-22T03:41:39.945Z,0.00
2018-02-22T03:42:39.923Z,0.00
2018-02-22T03:43:39.862Z,0.00
2018-02-22T03:44:39.832Z,0.00
2018-02-22T03:45:39.777Z,0.00
2018-02-22T03:46:39.746Z,0.00
2018-02-22T03:47:39.701Z,0.00
2018-02-22T03:48:39.662Z,0.00
2018-02-22T03:49:39.617Z,0.00
2018-02-22T03:50:39.567Z,0.00
2018-02-22T03:51:39.527Z,0.00
2018-02-22T03:52:39.504Z,0.00
2018-02-22T03:53:39.454Z,0.00
2018-02-22T03:54:39.422Z,0.00
2018-02-22T03:55:39.355Z,0.00
2018-02-22T03:56:39.338Z,0.00
2018-02-22T03:57:39.303Z,0.00
2018-02-22T03:58:39.232Z,0.00
2018-02-22T03:59:39.235Z,0.00
2018-02-22T04:00:39.138Z,0.00
2018-02-22T04:01:39.127Z,0.00
2018-02-22T04:02:39.061Z,0.00
2018-02-22T04:03:39.016Z,0.00
2018-02-22T04:04:38.983Z,0.00
2018-02-22T04:05:38.933Z,0.00
2018-02-22T04:06:38.895Z,0.00
2018-02-22T04:07:38.836Z,0.00
2018-02-22T04:08:38.803Z,0.00
2018-02-22T04:09:38.778Z,0.00
2018-02-22T04:10:38.727Z,0.00
2018-02-22T04:11:38.674Z,0.00
2018-02-22T04:12:38.623Z,0.00
2018-02-22T04:13:38.600Z,0.00
2018-02-22T04:14:38.540Z,0.00
2018-02-22T04:15:38.501Z,0.00
2018-02-22T04:16:38.459Z,0.00
2018-02-22T04:17:38.423Z,0.00
2018-02-22T04:18:38.379Z,0.00
2018-02-22T04:19:38.332Z,0.00
2018-02-22T04:20:38.297Z,0.00
2018-02-22T04:21:38.276Z,0.00
2018-02-22T04:22:38.213Z,0.00
2018-02-22T04:23:38.157Z,0.00
2018-02-22T04:24:38.110Z,0.00
2018-02-22T04:25:38.070Z,0.00
2018-02-22T04:26:38.028Z,0.00
2018-02-22T04:27:38.003Z,0.00
2018-02-22T04:28:37.944Z,0.00
2018-02-22T04:29:37.896Z,0.00
2018-02-22T04:30:37.853Z,0.00
2018-02-22T04:31:37.843Z,0.00
2018-02-22T04:32:37.780Z,0.00
2018-02-22T04:33:37.726Z,0.00
2018-02-22T04:34:37.698Z,0.00
2018-02-22T04:35:37.666Z,0.00
2018-02-22T04:36:37.600Z,0.00
2018-02-22T04:37:37.558Z,0.00
2018-02-22T04:38:37.514Z,0.00
2018-02-22T04:39:37.473Z,0.00
2018-02-22T04:40:37.433Z,0.00
2018-02-22T04:41:37.399Z,0.00
2018-02-22T04:42:37.365Z,0.00
2018-02-22T04:43:37.306Z,0.00
2018-02-22T04:44:37.261Z,0.00
2018-02-22T04:45:37.214Z,0.00
2018-02-22T04:46:37.202Z,0.00
2018-02-22T04:47:37.147Z,0.00
2018-02-22T04:48:37.103Z,0.00
2018-02-22T04:49:37.043Z,0.00
2018-02-22T04:50:37.032Z,0.00
2018-02-22T04:51:36.980Z,0.00
2018-02-22T04:52:36.916Z,0.00
2018-02-22T04:53:36.875Z,0.00
2018-02-22T04:54:36.847Z,0.00
2018-02-22T04:55:36.815Z,0.00
2018-02-22T04:56:36.783Z,0.00
2018-02-22T04:57:36.709Z,0.00
2018-02-22T04:58:36.661Z,0.00
2018-02-22T04:59:36.615Z,0.00
2018-02-22T05:00:36.580Z,0.00
2018-02-22T05:01:36.577Z,0.00
2018-02-22T05:02:36.499Z,0.00
2018-02-22T05:03:36.449Z,0.00
2018-02-22T05:04:36.407Z,0.00
2018-02-22T05:05:36.360Z,0.00
2018-02-22T05:06:36.317Z,0.00
2018-02-22T05:07:36.318Z,0.00
2018-02-22T05:08:36.242Z,0.00
2018-02-22T05:09:36.224Z,0.00
2018-02-22T05:10:36.151Z,0.00
2018-02-22T05:11:36.105Z,0.00
2018-02-22T05:12:36.117Z,0.00
2018-02-22T05:13:36.032Z,0.00
2018-02-22T05:14:36.011Z,0.00
2018-02-22T05:15:35.936Z,0.00
2018-02-22T05:16:35.895Z,0.00
2018-02-22T05:17:35.864Z,0.00
2018-02-22T05:18:35.823Z,0.00
2018-02-22T05:19:35.773Z,0.00
2018-02-22T05:20:35.744Z,0.00
2018-02-22T05:21:35.683Z,0.00
2018-02-22T05:22:35.675Z,0.00
2018-02-22T05:23:35.613Z,0.00
2018-02-22T05:24:35.557Z,0.00
2018-02-22T05:25:35.526Z,0.00
2018-02-22T05:26:35.461Z,0.00
2018-02-22T05:27:35.417Z,0.00
2018-02-22T05:28:35.397Z,0.00
2018-02-22T05:29:35.337Z,0.00
2018-02-22T05:30:35.301Z,0.00
2018-02-22T05:31:35.247Z,0.00
2018-02-22T05:32:35.226Z,0.00
2018-02-22T05:33:35.160Z,0.00
2018-02-22T05:34:35.118Z,0.00
2018-02-22T05:35:35.076Z,0.00
2018-02-22T05:36:35.034Z,0.00
2018-02-22T05:37:34.994Z,0.00
2018-02-22T05:38:34.966Z,0.00
2018-02-22T05:39:34.973Z,0.00
2018-02-22T05:40:34.895Z,0.00
2018-02-22T05:41:34.820Z,0.00
2018-02-22T05:42:34.780Z,0.00
2018-02-22T05:43:34.747Z,0.00
2018-02-22T05:44:34.699Z,0.00
2018-02-22T05:45:34.652Z,0.00
2018-02-22T05:46:34.613Z,0.00
2018-02-22T05:47:34.588Z,0.00
2018-02-22T05:48:34.525Z,0.00
2018-02-22T05:49:34.481Z,0.00
2018-02-22T05:50:34.437Z,0.00
2018-02-22T05:51:34.422Z,0.00
2018-02-22T05:52:34.350Z,0.00
2018-02-22T05:53:34.309Z,0.00
2018-02-22T05:54:34.270Z,0.00
2018-02-22T05:55:34.221Z,0.00
2018-02-22T05:56:34.231Z,0.00
2018-02-22T05:57:34.170Z,0.00
2018-02-22T05:58:34.100Z,0.00
2018-02-22T05:59:34.058Z,0.00
2018-02-22T06:00:34.013Z,4.00
2018-02-22T06:01:33.988Z,4.00
2018-02-22T06:02:33.935Z,0.00
2018-02-22T06:03:33.888Z,0.00
2018-02-22T06:04:33.835Z,4.00
2018-02-22T06:05:33.826Z,4.00
2018-02-22T06:06:33.747Z,4.00
2018-02-22T06:07:33.796Z,4.00
2018-02-22T06:08:33.661Z,4.00
2018-02-22T06:09:33.621Z,4.00
2018-02-22T06:10:33.588Z,4.00
2018-02-22T06:11:33.533Z,8.00
2018-02-22T06:12:33.538Z,4.00
2018-02-22T06:13:33.458Z,8.00
2018-02-22T06:14:33.410Z,12.00
2018-02-22T06:15:33.364Z,8.00
2018-02-22T06:16:33.322Z,16.00
2018-02-22T06:17:33.276Z,16.00
2018-02-22T06:18:33.250Z,20.00
2018-02-22T06:19:33.191Z,20.00
2018-02-22T06:20:33.146Z,20.00
2018-02-22T06:21:33.106Z,28.00
2018-02-22T06:22:33.070Z,28.00
2018-02-22T06:23:33.019Z,32.00
2018-02-22T06:24:33.666Z,36.00
2018-02-22T06:25:32.939Z,44.00
2018-02-22T06:26:32.903Z,48.00
2018-02-22T06:27:32.858Z,52.00
2018-02-22T06:28:32.805Z,60.00
2018-02-22T06:29:32.769Z,64.00
2018-02-22T06:30:32.740Z,72.00
2018-02-22T06:31:32.694Z,80.00
2018-02-22T06:32:32.648Z,88.00
2018-02-22T06:33:32.590Z,96.00
2018-02-22T06:34:32.592Z,104.00
2018-02-22T06:35:32.517Z,112.00
2018-02-22T06:36:32.499Z,124.00
2018-02-22T06:37:32.420Z,136.00
2018-02-22T06:38:32.378Z,144.00
2018-02-22T06:39:32.334Z,156.00
2018-02-22T06:40:32.343Z,164.00
2018-02-22T06:41:32.248Z,176.00
2018-02-22T06:42:32.204Z,188.00
2018-02-22T06:43:32.162Z,204.00
2018-02-22T06:44:32.119Z,212.00
2018-02-22T06:45:32.075Z,220.00
2018-02-22T06:46:32.033Z,228.00
2018-02-22T06:47:31.992Z,236.00
2018-02-22T06:48:31.952Z,252.00
2018-02-22T06:49:31.906Z,264.00
2018-02-22T06:50:31.877Z,276.00
2018-02-22T06:51:31.830Z,292.00
2018-02-22T06:52:31.778Z,308.00
2018-02-22T06:53:31.767Z,324.00
2018-02-22T06:54:31.743Z,344.00
2018-02-22T06:55:31.650Z,368.00
2018-02-22T06:56:31.609Z,400.00
2018-02-22T06:57:31.562Z,444.00
2018-02-22T06:58:31.520Z,524.00
2018-02-22T06:59:31.479Z,632.00
2018-02-22T07:00:31.455Z,704.00
2018-02-22T07:01:31.392Z,740.00
2018-02-22T07:02:31.350Z,784.00
2018-02-22T07:03:31.310Z,820.00
2018-02-22T07:04:31.266Z,824.00
2018-02-22T07:05:31.222Z,788.00
2018-02-22T07:06:31.433Z,780.00
2018-02-22T07:07:31.138Z,812.00
2018-02-22T07:08:31.100Z,856.00
2018-02-22T07:09:31.093Z,956.00
2018-02-22T07:10:31.012Z,1076.00
2018-02-22T07:11:30.972Z,1184.00
2018-02-22T07:12:30.929Z,1260.00
2018-02-22T07:13:30.886Z,1276.00
2018-02-22T07:14:30.846Z,1340.00
2018-02-22T07:15:30.807Z,1464.00
2018-02-22T07:16:30.761Z,1484.00
2018-02-22T07:17:30.721Z,1432.00
2018-02-22T07:18:30.680Z,1448.00
2018-02-22T07:19:30.644Z,1492.00
2018-02-22T07:20:30.612Z,1716.00
2018-02-22T07:21:30.554Z,2000.00
2018-02-22T07:22:30.515Z,2140.00
2018-02-22T07:23:30.476Z,2444.00
2018-02-22T07:24:30.438Z,2868.00
2018-02-22T07:25:30.394Z,3080.00
2018-02-22T07:26:30.358Z,3168.00
2018-02-22T07:27:30.316Z,3248.00
2018-02-22T07:28:30.278Z,3300.00
2018-02-22T07:29:30.238Z,3364.00
2018-02-22T07:30:30.206Z,3528.00
2018-02-22T07:31:30.157Z,3604.00
2018-02-22T07:32:30.118Z,3660.00
2018-02-22T07:33:30.080Z,3752.00
2018-02-22T07:34:30.038Z,3848.00
2018-02-22T07:35:30.002Z,3908.00
2018-02-22T07:36:29.961Z,3900.00
2018-02-22T07:37:29.926Z,3980.00
2018-02-22T07:38:29.884Z,4096.00
2018-02-22T07:39:29.846Z,4156.00
2018-02-22T07:40:29.808Z,4124.00
2018-02-22T07:41:29.771Z,4172.00
2018-02-22T07:42:29.734Z,4124.00
2018-02-22T07:43:29.698Z,4032.00
2018-02-22T07:44:29.658Z,4028.00
2018-02-22T07:45:29.621Z,3996.00
2018-02-22T07:46:29.584Z,3896.00
2018-02-22T07:47:29.548Z,3808.00
2018-02-22T07:48:29.516Z,3708.00
2018-02-22T07:49:29.476Z,3680.00
2018-02-22T07:50:29.441Z,3676.00
2018-02-22T07:51:29.401Z,3728.00
2018-02-22T07:52:29.425Z,3696.00
2018-02-22T07:53:29.330Z,3716.00
2018-02-22T07:54:29.293Z,3748.00
2018-02-22T07:55:29.259Z,3800.00
2018-02-22T07:56:29.223Z,3872.00
2018-02-22T07:57:29.187Z,3952.00
2018-02-22T07:58:29.159Z,3992.00
2018-02-22T07:59:29.121Z,4036.00
2018-02-22T08:00:29.082Z,4184.00
2018-02-22T08:01:29.047Z,4512.00
2018-02-22T08:02:29.018Z,5132.00
2018-02-22T08:03:28.984Z,5520.00
2018-02-22T08:04:28.944Z,5764.00
2018-02-22T08:05:28.908Z,5852.00
2018-02-22T08:06:28.879Z,5960.00
2018-02-22T08:07:28.839Z,6352.00
2018-02-22T08:08:28.809Z,6780.00
2018-02-22T08:09:28.785Z,6840.00
2018-02-22T08:10:28.742Z,6760.00
2018-02-22T08:11:28.707Z,6468.00
2018-02-22T08:12:28.678Z,6292.00
2018-02-22T08:13:28.639Z,6176.00
2018-02-22T08:14:28.605Z,6216.00
2018-02-22T08:15:28.573Z,6316.00
2018-02-22T08:16:28.543Z,6528.00
2018-02-22T08:17:28.511Z,6544.00
2018-02-22T08:18:28.476Z,6480.00
2018-02-22T08:19:28.439Z,6404.00
2018-02-22T08:20:28.421Z,6252.00
2018-02-22T08:21:28.377Z,6212.00
2018-02-22T08:22:28.346Z,6328.00
2018-02-22T08:23:28.313Z,6416.00
2018-02-22T08:24:28.281Z,6472.00
2018-02-22T08:25:28.244Z,6384.00
2018-02-22T08:26:28.220Z,6384.00
2018-02-22T08:27:28.181Z,6492.00
2018-02-22T08:28:28.154Z,6420.00
2018-02-22T08:29:28.121Z,6476.00
2018-02-22T08:30:28.092Z,6744.00
2018-02-22T08:31:28.056Z,7000.00
2018-02-22T08:32:28.025Z,6964.00
2018-02-22T08:33:27.991Z,7000.00
2018-02-22T08:34:27.961Z,7164.00
2018-02-22T08:35:27.937Z,7200.00
2018-02-22T08:36:27.897Z,7096.00
2018-02-22T08:37:27.864Z,7188.00
2018-02-22T08:38:27.836Z,7416.00
2018-02-22T08:39:27.841Z,7356.00
2018-02-22T08:40:27.774Z,7484.00
2018-02-22T08:41:27.747Z,7584.00
2018-02-22T08:42:27.711Z,7520.00
2018-02-22T08:43:27.701Z,7576.00
2018-02-22T08:44:27.654Z,7536.00
2018-02-22T08:45:27.618Z,7680.00
2018-02-22T08:46:27.589Z,7868.00
2018-02-22T08:47:27.559Z,7928.00
2018-02-22T08:48:27.530Z,8044.00
2018-02-22T08:49:27.500Z,8188.00
2018-02-22T08:50:27.469Z,8256.00
2018-02-22T08:51:27.439Z,8204.00
2018-02-22T08:52:27.409Z,8312.00
2018-02-22T08:53:27.380Z,8388.00
2018-02-22T08:54:27.366Z,8268.00
2018-02-22T08:55:27.321Z,8324.00
2018-02-22T08:56:27.295Z,8344.00
2018-02-22T08:57:27.261Z,8564.00
2018-02-22T08:58:27.234Z,8580.00
2018-02-22T08:59:27.209Z,8420.00
2018-02-22T09:00:27.176Z,8524.00
2018-02-22T09:01:27.155Z,8532.00
2018-02-22T09:02:27.120Z,8708.00
2018-02-22T09:03:27.086Z,8712.00
2018-02-22T09:04:27.058Z,8712.00
2018-02-22T09:05:27.028Z,8932.00
2018-02-22T09:06:27.001Z,9100.00
2018-02-22T09:07:26.972Z,8888.00
2018-02-22T09:08:26.947Z,8968.00
2018-02-22T09:09:26.913Z,8832.00
2018-02-22T09:10:26.894Z,8864.00
2018-02-22T09:11:26.856Z,9032.00
2018-02-22T09:12:26.830Z,8984.00
2018-02-22T09:13:26.803Z,9040.00
2018-02-22T09:14:26.773Z,9108.00
2018-02-22T09:15:26.744Z,9168.00
2018-02-22T09:16:26.717Z,9324.00
2018-02-22T09:17:26.687Z,9268.00
2018-02-22T09:18:26.671Z,9288.00
2018-02-22T09:19:26.637Z,9444.00
2018-02-22T09:20:26.603Z,9688.00
2018-02-22T09:21:26.577Z,9888.00
2018-02-22T09:22:26.555Z,9776.00
2018-02-22T09:23:26.522Z,9664.00
2018-02-22T09:24:26.495Z,9728.00
2018-02-22T09:25:26.466Z,10004.00
2018-02-22T09:26:26.438Z,9812.00
2018-02-22T09:27:26.417Z,9840.00
2018-02-22T09:28:26.404Z,10092.00
2018-02-22T09:29:26.363Z,10204.00
2018-02-22T09:30:26.336Z,10092.00
2018-02-22T09:31:26.310Z,9880.00
2018-02-22T09:32:26.278Z,10208.00
2018-02-22T09:33:26.255Z,10448.00
2018-02-22T09:34:26.227Z,10392.00
2018-02-22T09:35:26.218Z,10308.00
2018-02-22T09:36:26.184Z,9616.00
2018-02-22T09:37:26.151Z,9556.00
2018-02-22T09:38:26.126Z,8796.00
2018-02-22T09:39:26.098Z,8144.00
2018-02-22T09:40:26.072Z,7880.00
2018-02-22T09:41:26.043Z,7816.00
2018-02-22T09:42:26.025Z,7916.00
2018-02-22T09:43:25.994Z,7932.00
2018-02-22T09:44:25.970Z,7944.00
2018-02-22T09:45:25.941Z,7928.00
2018-02-22T09:46:25.915Z,7636.00
2018-02-22T09:47:25.903Z,8024.00
2018-02-22T09:48:25.867Z,8108.00
2018-02-22T09:49:25.848Z,8080.00
2018-02-22T09:50:25.815Z,8108.00
2018-02-22T09:51:25.803Z,8212.00
2018-02-22T09:52:25.767Z,8200.00
2018-02-22T09:53:25.743Z,8156.00
2018-02-22T09:54:25.722Z,8208.00
2018-02-22T09:55:25.711Z,8364.00
2018-02-22T09:56:25.665Z,8348.00
2018-02-22T09:57:25.642Z,8288.00
2018-02-22T09:58:25.618Z,8376.00
2018-02-22T09:59:25.588Z,8384.00
2018-02-22T10:00:25.566Z,8384.00
2018-02-22T10:01:25.540Z,8404.00
2018-02-22T10:02:25.520Z,8384.00
2018-02-22T10:03:25.494Z,8552.00
2018-02-22T10:04:25.470Z,8676.00
2018-02-22T10:05:25.446Z,8820.00
2018-02-22T10:06:25.427Z,8968.00
2018-02-22T10:07:25.393Z,9040.00
2018-02-22T10:08:25.372Z,9196.00
2018-02-22T10:09:25.349Z,9536.00
2018-02-22T10:10:25.322Z,9764.00
2018-02-22T10:11:25.297Z,9856.00
2018-02-22T10:12:25.273Z,9712.00
2018-02-22T10:13:25.254Z,9544.00
2018-02-22T10:14:25.222Z,9428.00
2018-02-22T10:15:25.209Z,9368.00
2018-02-22T10:16:25.180Z,9132.00
2018-02-22T10:17:25.152Z,8956.00
2018-02-22T10:18:25.128Z,8884.00
2018-02-22T10:19:25.108Z,8904.00
2018-02-22T10:20:25.080Z,8948.00
2018-02-22T10:21:25.057Z,8828.00
2018-02-22T10:22:25.036Z,8948.00
2018-02-22T10:23:25.013Z,8980.00
2018-02-22T10:24:24.988Z,9224.00
2018-02-22T10:25:24.966Z,9204.00
2018-02-22T10:26:24.938Z,9264.00
2018-02-22T10:27:24.918Z,9432.00
2018-02-22T10:28:24.897Z,9488.00
2018-02-22T10:29:24.871Z,9584.00
2018-02-22T10:30:24.846Z,9652.00
2018-02-22T10:31:24.824Z,9680.00
2018-02-22T10:32:24.799Z,9704.00
2018-02-22T10:33:24.788Z,9812.00
2018-02-22T10:34:24.754Z,9828.00
2018-02-22T10:35:24.734Z,9944.00
2018-02-22T10:36:24.712Z,10076.00
2018-02-22T10:37:24.685Z,9968.00
2018-02-22T10:38:24.660Z,10144.00
2018-02-22T10:39:24.637Z,10260.00
2018-02-22T10:40:24.624Z,10156.00
2018-02-22T10:41:24.595Z,10292.00
2018-02-22T10:42:24.571Z,10692.00
2018-02-22T10:43:24.548Z,10552.00
2018-02-22T10:44:24.526Z,10584.00
2018-02-22T10:45:24.501Z,10640.00
2018-02-22T10:46:24.495Z,10624.00
2018-02-22T10:47:24.469Z,10732.00
2018-02-22T10:48:24.433Z,11024.00
2018-02-22T10:49:24.418Z,10864.00
2018-02-22T10:50:24.386Z,10884.00
2018-02-22T10:51:24.367Z,10992.00
2018-02-22T10:52:24.344Z,11056.00
2018-02-22T10:53:24.316Z,10592.00
2018-02-22T10:54:24.301Z,11172.00
2018-02-22T10:55:24.274Z,11824.00
2018-02-22T10:56:24.248Z,11452.00
2018-02-22T10:57:24.224Z,11792.00
2018-02-22T10:58:24.200Z,10356.00
2018-02-22T10:59:24.181Z,12028.00
2018-02-22T11:00:24.222Z,11788.00
2018-02-22T11:01:24.135Z,12180.00
2018-02-22T11:02:24.113Z,12104.00
2018-02-22T11:03:24.090Z,12696.00
2018-02-22T11:04:24.066Z,13472.00
2018-02-22T11:05:24.044Z,13600.00
2018-02-22T11:06:24.020Z,13472.00
2018-02-22T11:07:23.999Z,13728.00
2018-02-22T11:08:23.970Z,13920.00
2018-02-22T11:09:23.999Z,13984.00
2018-02-22T11:10:23.923Z,14016.00
2018-02-22T11:11:23.902Z,13952.00
2018-02-22T11:12:23.876Z,14240.00
2018-02-22T11:13:23.859Z,14432.00
2018-02-22T11:14:23.829Z,15232.00
2018-02-22T11:15:23.818Z,15552.00
2018-02-22T11:16:23.784Z,15072.00
2018-02-22T11:17:23.758Z,15136.00
2018-02-22T11:18:23.742Z,14720.00
2018-02-22T11:19:23.715Z,15488.00
2018-02-22T11:20:23.692Z,15840.00
2018-02-22T11:21:23.667Z,15776.00
2018-02-22T11:22:23.645Z,16960.00
2018-02-22T11:23:23.625Z,16960.00
2018-02-22T11:24:23.593Z,16384.00
2018-02-22T11:25:23.701Z,17120.00
2018-02-22T11:26:23.547Z,17696.00
2018-02-22T11:27:23.530Z,18496.00
2018-02-22T11:28:23.501Z,19136.00
2018-02-22T11:29:23.474Z,19360.00
2018-02-22T11:30:23.453Z,19520.00
2018-02-22T11:31:23.432Z,19488.00
2018-02-22T11:32:23.407Z,19936.00
2018-02-22T11:33:23.400Z,19232.00
2018-02-22T11:34:23.361Z,19104.00
2018-02-22T11:35:23.342Z,18944.00
2018-02-22T11:36:23.312Z,22432.00
2018-02-22T11:37:23.300Z,22528.00
2018-02-22T11:38:23.267Z,22144.00
2018-02-22T11:39:23.245Z,22336.00
2018-02-22T11:40:23.223Z,22528.00
2018-02-22T11:41:23.198Z,23264.00
2018-02-22T11:42:23.175Z,23744.00
2018-02-22T11:43:23.163Z,22912.00
2018-02-22T11:44:23.127Z,23872.00
2018-02-22T11:45:23.116Z,24032.00
2018-02-22T11:46:23.081Z,25184.00
2018-02-22T11:47:23.062Z,24224.00
2018-02-22T11:48:23.036Z,23936.00
2018-02-22T11:49:23.012Z,25408.00
2018-02-22T11:50:23.055Z,26656.00
2018-02-22T11:51:22.974Z,26816.00
2018-02-22T11:52:22.946Z,26016.00
2018-02-22T11:53:23.192Z,26496.00
2018-02-22T11:54:22.903Z,26912.00
2018-02-22T11:55:22.882Z,28288.00
2018-02-22T11:56:22.876Z,27968.00
2018-02-22T11:57:23.258Z,28352.00
2018-02-22T11:58:22.827Z,29152.00
2018-02-22T11:59:22.786Z,28512.00
2018-02-22T12:00:22.762Z,28672.00
2018-02-22T12:01:22.741Z,29248.00
2018-02-22T12:02:22.718Z,29664.00
2018-02-22T12:03:22.695Z,30944.00
2018-02-22T12:04:22.673Z,31904.00
2018-02-22T12:05:22.652Z,33280.00
2018-02-22T12:06:22.625Z,32096.00
2018-02-22T12:07:22.606Z,33152.00
2018-02-22T12:08:22.593Z,32448.00
2018-02-22T12:09:22.560Z,32672.00
2018-02-22T12:10:22.538Z,33120.00
2018-02-22T12:11:22.554Z,35328.00
2018-02-22T12:12:22.494Z,34144.00
2018-02-22T12:13:22.469Z,36832.00
2018-02-22T12:14:22.446Z,34304.00
2018-02-22T12:15:22.426Z,36224.00
2018-02-22T12:16:22.406Z,33472.00
2018-02-22T12:17:22.378Z,10192.00
2018-02-22T12:18:22.357Z,35424.00
2018-02-22T12:19:22.339Z,36672.00
2018-02-22T12:20:22.308Z,36064.00
2018-02-22T12:21:22.287Z,35552.00
2018-02-22T12:22:22.262Z,35968.00
2018-02-22T12:23:22.243Z,36128.00
2018-02-22T12:24:22.232Z,36960.00
2018-02-22T12:25:22.194Z,36448.00
2018-02-22T12:26:22.170Z,37152.00
2018-02-22T12:27:22.151Z,37632.00
2018-02-22T12:28:22.128Z,36544.00
2018-02-22T12:29:22.103Z,38048.00
2018-02-22T12:30:22.082Z,37024.00
2018-02-22T12:31:22.062Z,37408.00
2018-02-22T12:32:22.041Z,39520.00
2018-02-22T12:33:22.015Z,40384.00
2018-02-22T12:34:21.992Z,40160.00
2018-02-22T12:35:21.970Z,40448.00
2018-02-22T12:36:21.949Z,41472.00
2018-02-22T12:37:21.922Z,39584.00
2018-02-22T12:38:21.904Z,37792.00